createdAt,value
2023-03-30T00:00:58.055Z,54.87
2023-03-30T00:03:27.768Z,54.40
2023-03-30T00:05:58.975Z,54.56
2023-03-30T00:08:28.564Z,54.22
2023-03-30T00:11:06.219Z,54.18
2023-03-30T00:13:35.033Z,54.81
2023-03-30T00:16:02.329Z,54.39
2023-03-30T00:18:34.079Z,53.66
2023-03-30T00:21:03.139Z,53.37
2023-03-30T00:23:30.972Z,52.70
2023-03-30T00:25:58.200Z,53.03
2023-03-30T00:28:26.381Z,52.88
2023-03-30T00:30:53.907Z,52.54
2023-03-30T00:33:30.179Z,52.35
2023-03-30T00:36:04.851Z,52.89
2023-03-30T00:38:32.074Z,52.80
2023-03-30T00:41:02.181Z,53.01
2023-03-30T00:43:29.812Z,53.36
2023-03-30T00:45:57.783Z,53.48
2023-03-30T00:48:27.984Z,52.53
2023-03-30T00:51:03.245Z,51.58
2023-03-30T00:53:53.233Z,50.59
2023-03-30T00:56:26.756Z,50.71
2023-03-30T00:58:55.087Z,50.49
2023-03-30T01:01:31.248Z,50.17
2023-03-30T01:04:05.676Z,51.09
2023-03-30T01:06:35.484Z,51.12
2023-03-30T01:09:02.775Z,51.68
2023-03-30T01:11:29.631Z,50.95
2023-03-30T01:14:01.362Z,51.80
2023-03-30T01:16:46.522Z,51.65
2023-03-30T01:19:25.861Z,51.46
2023-03-30T01:22:01.576Z,50.65
2023-03-30T01:24:35.030Z,51.58
2023-03-30T01:27:46.335Z,52.32
2023-03-30T01:30:19.210Z,51.81
2023-03-30T01:33:04.717Z,52.86
2023-03-30T01:35:46.211Z,52.78
2023-03-30T01:38:25.142Z,51.95
2023-03-30T01:41:14.134Z,51.36
2023-03-30T01:43:53.940Z,51.31
2023-03-30T01:46:31.004Z,51.43
2023-03-30T01:49:15.484Z,51.92
2023-03-30T01:51:54.321Z,52.44
2023-03-30T01:54:24.152Z,52.27
2023-03-30T01:56:57.964Z,52.72
2023-03-30T01:59:31.551Z,53.01
2023-03-30T02:02:04.241Z,53.56
2023-03-30T02:04:38.874Z,53.98
2023-03-30T02:07:20.936Z,55.09
2023-03-30T02:09:51.016Z,55.25
2023-03-30T02:12:19.664Z,55.90
2023-03-30T02:14:49.654Z,57.30
2023-03-30T02:17:24.612Z,57.95
2023-03-30T02:19:52.564Z,58.58
2023-03-30T02:22:20.668Z,58.71
2023-03-30T02:24:52.048Z,57.96
2023-03-30T02:27:19.831Z,57.53
2023-03-30T02:29:47.089Z,58.07
2023-03-30T02:32:28.923Z,58.70
2023-03-30T02:35:09.074Z,59.60
2023-03-30T02:38:20.543Z,61.05
2023-03-30T02:40:53.117Z,61.70
2023-03-30T02:43:52.684Z,61.97
2023-03-30T02:46:28.647Z,62.99
2023-03-30T02:49:28.775Z,63.66
2023-03-30T02:52:34.026Z,63.63
2023-03-30T02:55:13.680Z,62.62
2023-03-30T02:57:46.871Z,63.69
2023-03-30T03:00:34.680Z,64.10
2023-03-30T03:03:31.774Z,63.44
2023-03-30T03:06:02.920Z,63.30
2023-03-30T03:08:35.361Z,63.26
2023-03-30T03:11:02.797Z,63.46
2023-03-30T03:13:29.926Z,63.87
2023-03-30T03:15:58.715Z,63.76
2023-03-30T03:18:25.664Z,64.35
2023-03-30T03:20:52.826Z,64.16
2023-03-30T03:23:19.661Z,63.23
2023-03-30T03:25:48.412Z,62.72
2023-03-30T03:28:15.588Z,62.29
2023-03-30T03:30:42.895Z,61.59
2023-03-30T03:33:09.796Z,62.36
2023-03-30T03:35:39.525Z,62.17
2023-03-30T03:38:07.947Z,62.69
2023-03-30T03:40:35.067Z,63.00
2023-03-30T03:43:02.134Z,63.27
2023-03-30T03:45:29.369Z,64.68
2023-03-30T03:47:56.514Z,65.56
2023-03-30T03:50:24.199Z,66.23
2023-03-30T03:52:51.384Z,66.12
2023-03-30T03:55:18.546Z,66.52
2023-03-30T03:57:45.368Z,67.15
2023-03-30T04:00:18.709Z,67.70
2023-03-30T04:02:46.926Z,68.14
2023-03-30T04:05:14.236Z,67.84
2023-03-30T04:07:41.697Z,67.36
2023-03-30T04:10:09.190Z,66.73
2023-03-30T04:12:36.501Z,66.36
2023-03-30T04:15:04.050Z,65.56
2023-03-30T04:17:33.738Z,64.74
2023-03-30T04:20:05.023Z,63.82
2023-03-30T04:22:41.974Z,63.27
2023-03-30T04:25:11.748Z,63.07
2023-03-30T04:27:38.856Z,62.60
2023-03-30T04:30:06.571Z,62.75
2023-03-30T04:32:34.875Z,62.08
2023-03-30T04:35:02.245Z,62.03
2023-03-30T04:37:32.150Z,61.31
2023-03-30T04:40:00.539Z,60.23
2023-03-30T04:42:30.470Z,59.44
2023-03-30T04:44:58.017Z,59.44
2023-03-30T04:47:26.145Z,59.37
2023-03-30T04:49:53.385Z,56.42
2023-03-30T04:52:20.894Z,56.52
2023-03-30T04:54:48.147Z,57.09
2023-03-30T04:57:16.284Z,57.49
2023-03-30T04:59:45.200Z,57.20
2023-03-30T05:02:13.826Z,57.40
2023-03-30T05:04:41.517Z,57.75
2023-03-30T05:07:09.073Z,57.54
2023-03-30T05:09:36.562Z,58.38
2023-03-30T05:12:04.791Z,58.16
2023-03-30T05:14:32.052Z,58.50
2023-03-30T05:16:59.043Z,58.16
2023-03-30T05:19:26.555Z,58.77
2023-03-30T05:21:54.099Z,58.86
2023-03-30T05:24:21.382Z,58.68
2023-03-30T05:26:48.318Z,58.94
2023-03-30T05:29:15.944Z,59.08
2023-03-30T05:31:42.894Z,59.46
2023-03-30T05:34:10.098Z,59.92
2023-03-30T05:36:37.025Z,59.67
2023-03-30T05:39:05.169Z,59.53
2023-03-30T05:41:32.104Z,59.47
2023-03-30T05:43:59.345Z,58.75
2023-03-30T05:46:26.365Z,58.05
2023-03-30T05:48:53.539Z,58.06
2023-03-30T05:51:20.657Z,58.76
2023-03-30T05:53:47.975Z,57.56
2023-03-30T05:56:14.816Z,56.92
2023-03-30T05:58:42.343Z,57.66
2023-03-30T06:01:09.591Z,57.21
2023-03-30T06:03:37.818Z,57.55
2023-03-30T06:06:05.849Z,57.11
2023-03-30T06:08:33.176Z,56.65
2023-03-30T06:11:01.015Z,56.79
2023-03-30T06:13:28.288Z,57.37
2023-03-30T06:15:55.237Z,57.45
2023-03-30T06:18:23.734Z,58.17
2023-03-30T06:20:52.305Z,57.64
2023-03-30T06:23:19.498Z,57.70
2023-03-30T06:25:53.157Z,57.53
2023-03-30T06:28:21.574Z,57.60
2023-03-30T06:30:49.411Z,57.96
2023-03-30T06:33:17.739Z,58.21
2023-03-30T06:35:49.217Z,57.58
2023-03-30T06:38:17.464Z,57.75
2023-03-30T06:40:44.590Z,58.22
2023-03-30T06:43:23.320Z,58.15
2023-03-30T06:45:55.229Z,57.88
2023-03-30T06:48:26.716Z,58.00
2023-03-30T06:50:55.286Z,57.31
2023-03-30T06:53:23.624Z,57.71
2023-03-30T06:55:53.066Z,56.98
2023-03-30T06:58:20.066Z,57.51
2023-03-30T07:00:47.734Z,58.10
2023-03-30T07:03:19.918Z,57.25
2023-03-30T07:05:52.429Z,56.89
2023-03-30T07:08:20.266Z,57.40
2023-03-30T07:10:48.269Z,56.84
2023-03-30T07:13:19.258Z,57.21
2023-03-30T07:15:47.014Z,56.53
2023-03-30T07:18:14.963Z,56.65
2023-03-30T07:20:42.003Z,55.36
2023-03-30T07:23:09.231Z,55.69
2023-03-30T07:25:36.427Z,53.88
2023-03-30T07:28:06.344Z,54.52
2023-03-30T07:30:34.956Z,53.29
2023-03-30T07:33:02.956Z,52.19
2023-03-30T07:35:30.173Z,51.30
2023-03-30T07:38:03.434Z,53.14
2023-03-30T07:40:31.405Z,53.05
2023-03-30T07:42:59.101Z,52.16
2023-03-30T07:45:26.324Z,52.13
2023-03-30T07:47:53.567Z,53.57
2023-03-30T07:50:21.645Z,52.49
2023-03-30T07:52:51.412Z,50.94
2023-03-30T07:55:19.079Z,50.10
2023-03-30T07:57:46.440Z,50.34
2023-03-30T08:00:14.755Z,49.26
2023-03-30T08:02:42.590Z,48.36
2023-03-30T08:05:10.305Z,48.05
2023-03-30T08:07:37.761Z,48.47
2023-03-30T08:10:05.343Z,47.63
2023-03-30T08:12:32.514Z,48.70
2023-03-30T08:14:59.510Z,50.64
2023-03-30T08:17:26.990Z,50.39
2023-03-30T08:19:53.948Z,50.30
2023-03-30T08:22:21.155Z,52.94
2023-03-30T08:24:48.181Z,51.26
2023-03-30T08:27:15.390Z,52.77
2023-03-30T08:29:42.218Z,52.08
2023-03-30T08:32:09.442Z,51.86
2023-03-30T08:34:37.392Z,52.10
2023-03-30T08:37:05.739Z,51.81
2023-03-30T08:39:33.300Z,52.21
2023-03-30T08:42:23.156Z,49.86
2023-03-30T08:44:55.762Z,47.14
2023-03-30T08:47:33.274Z,50.31
2023-03-30T08:50:04.999Z,45.53
2023-03-30T08:52:34.017Z,45.75
2023-03-30T08:55:01.976Z,45.96
2023-03-30T08:57:46.989Z,46.56
2023-03-30T09:00:29.386Z,48.63
2023-03-30T09:03:10.862Z,48.50
2023-03-30T09:05:46.162Z,47.26
2023-03-30T09:08:20.091Z,47.05
2023-03-30T09:10:59.172Z,46.04
2023-03-30T09:13:33.859Z,47.38
2023-03-30T09:16:15.048Z,49.09
2023-03-30T09:18:44.908Z,47.48
2023-03-30T09:21:13.824Z,47.52
2023-03-30T09:23:41.267Z,47.38
2023-03-30T09:26:28.519Z,48.58
2023-03-30T09:29:15.545Z,48.97
2023-03-30T09:31:51.776Z,47.84
2023-03-30T09:34:30.520Z,48.52
2023-03-30T09:37:04.038Z,47.48
2023-03-30T09:39:34.243Z,49.56
2023-03-30T09:42:01.449Z,48.46
2023-03-30T09:44:58.710Z,48.87
2023-03-30T09:47:28.653Z,50.05
2023-03-30T09:50:01.009Z,50.25
2023-03-30T09:52:32.178Z,49.11
2023-03-30T09:55:24.099Z,48.75
2023-03-30T09:57:52.379Z,48.54
2023-03-30T10:00:27.873Z,48.22
2023-03-30T10:03:03.806Z,49.60
2023-03-30T10:05:32.898Z,50.58
2023-03-30T10:08:01.324Z,50.22
2023-03-30T10:10:41.223Z,49.07
2023-03-30T10:13:14.585Z,46.68
2023-03-30T10:15:44.944Z,46.45
2023-03-30T10:18:18.278Z,48.28
2023-03-30T10:21:02.735Z,47.12
2023-03-30T10:23:33.507Z,45.58
2023-03-30T10:26:03.821Z,46.58
2023-03-30T10:28:33.684Z,48.18
2023-03-30T10:31:13.712Z,46.58
2023-03-30T10:33:44.030Z,48.15
2023-03-30T10:36:13.590Z,48.89
2023-03-30T10:38:42.491Z,46.78
2023-03-30T10:41:23.757Z,45.47
2023-03-30T10:43:51.850Z,43.05
2023-03-30T10:46:22.862Z,45.35
2023-03-30T10:49:02.334Z,44.34
2023-03-30T10:51:53.304Z,41.31
2023-03-30T10:54:35.713Z,42.80
2023-03-30T10:57:26.393Z,42.55
2023-03-30T11:00:29.914Z,42.63
2023-03-30T11:02:59.472Z,43.13
2023-03-30T11:05:32.688Z,44.17
2023-03-30T11:08:07.028Z,43.86
2023-03-30T11:10:59.261Z,42.66
2023-03-30T11:13:43.019Z,43.14
2023-03-30T11:16:16.230Z,41.99
2023-03-30T11:18:57.215Z,41.88
2023-03-30T11:21:37.100Z,42.10
2023-03-30T11:24:30.277Z,41.67
2023-03-30T11:27:18.695Z,40.60
2023-03-30T11:29:50.079Z,42.06
2023-03-30T11:32:24.865Z,41.15
2023-03-30T11:35:31.861Z,41.38
2023-03-30T11:38:17.596Z,40.97
2023-03-30T11:40:47.066Z,40.73
2023-03-30T11:43:20.223Z,41.43
2023-03-30T11:46:04.427Z,41.62
2023-03-30T11:48:50.646Z,41.32
2023-03-30T11:52:01.537Z,43.22
2023-03-30T11:55:03.096Z,41.58
2023-03-30T11:57:57.174Z,42.16
2023-03-30T12:00:42.808Z,42.96
2023-03-30T12:03:17.580Z,43.86
2023-03-30T12:05:48.826Z,44.43
2023-03-30T12:08:44.180Z,44.99
2023-03-30T12:11:20.624Z,46.17
2023-03-30T12:13:52.098Z,47.16
2023-03-30T12:16:49.439Z,45.83
2023-03-30T12:19:29.353Z,50.91
2023-03-30T12:22:16.382Z,47.74
2023-03-30T12:24:53.942Z,47.87
2023-03-30T12:27:22.790Z,47.79
2023-03-30T12:32:24.242Z,48.00
2023-03-30T12:34:53.271Z,50.10
2023-03-30T12:37:35.372Z,47.09
2023-03-30T12:40:22.327Z,48.05
2023-03-30T12:43:10.973Z,48.96
2023-03-30T12:46:02.203Z,50.27
2023-03-30T12:49:01.616Z,49.45
2023-03-30T12:51:54.552Z,48.66
2023-03-30T12:54:41.890Z,49.31
2023-03-30T12:57:31.632Z,48.01
2023-03-30T13:00:23.567Z,49.46
2023-03-30T13:03:26.154Z,48.70
2023-03-30T13:05:55.445Z,47.01
2023-03-30T13:08:28.889Z,47.38
2023-03-30T13:11:21.123Z,47.42
2023-03-30T13:13:53.820Z,49.27
2023-03-30T13:16:48.984Z,47.99
2023-03-30T13:19:37.229Z,48.62
2023-03-30T13:22:13.484Z,49.33
2023-03-30T13:24:52.524Z,49.94
2023-03-30T13:27:19.611Z,50.21
2023-03-30T13:30:09.877Z,49.16
2023-03-30T13:32:39.838Z,49.93
2023-03-30T13:35:15.814Z,49.80
2023-03-30T13:38:04.376Z,50.96
2023-03-30T13:41:05.397Z,51.39
2023-03-30T13:43:58.472Z,53.43
2023-03-30T13:46:54.301Z,52.58
2023-03-30T13:49:30.692Z,54.40
2023-03-30T13:52:04.261Z,53.07
2023-03-30T13:54:34.523Z,53.72
2023-03-30T13:57:09.887Z,53.52
2023-03-30T13:59:42.475Z,54.41
2023-03-30T14:02:14.856Z,54.13
2023-03-30T14:04:42.061Z,55.07
2023-03-30T14:07:16.546Z,55.10
2023-03-30T14:09:44.683Z,56.16
2023-03-30T14:12:13.834Z,56.37
2023-03-30T14:14:47.196Z,57.32
2023-03-30T14:17:19.269Z,56.62
2023-03-30T14:19:54.210Z,57.37
2023-03-30T14:22:27.349Z,59.59
2023-03-30T14:25:02.740Z,57.75
2023-03-30T14:27:38.575Z,56.79
2023-03-30T14:30:22.305Z,58.88
2023-03-30T14:33:09.003Z,59.25
2023-03-30T14:35:47.618Z,58.82
2023-03-30T14:38:20.427Z,59.11
2023-03-30T14:40:49.071Z,60.39
2023-03-30T14:43:29.463Z,60.17
2023-03-30T14:45:59.752Z,60.79
2023-03-30T14:48:35.308Z,61.20
2023-03-30T14:51:03.882Z,62.00
2023-03-30T14:53:31.497Z,63.13
2023-03-30T14:56:01.115Z,63.01
2023-03-30T14:58:29.970Z,63.71
2023-03-30T15:00:58.926Z,65.40
2023-03-30T15:03:34.562Z,65.32
2023-03-30T15:06:04.946Z,66.27
2023-03-30T15:08:33.976Z,66.13
2023-03-30T15:11:04.473Z,67.46
2023-03-30T15:13:36.819Z,67.57
2023-03-30T15:16:06.216Z,67.66
2023-03-30T15:18:36.528Z,69.06
2023-03-30T15:21:04.803Z,69.38
2023-03-30T15:23:41.177Z,70.14
2023-03-30T15:26:11.464Z,70.05
2023-03-30T15:28:52.194Z,70.37
2023-03-30T15:31:20.693Z,70.41
2023-03-30T15:33:54.086Z,71.30
2023-03-30T15:36:33.320Z,70.07
2023-03-30T15:39:00.482Z,70.78
2023-03-30T15:41:49.692Z,70.94
2023-03-30T15:44:21.407Z,71.67
2023-03-30T15:46:50.425Z,71.41
2023-03-30T15:49:24.924Z,71.96
2023-03-30T15:51:56.596Z,71.33
2023-03-30T15:54:34.691Z,72.24
2023-03-30T15:57:17.653Z,71.28
2023-03-30T15:59:46.951Z,72.16
2023-03-30T16:02:17.260Z,72.62
2023-03-30T16:04:44.320Z,72.99
2023-03-30T16:07:17.687Z,72.81
2023-03-30T16:09:44.980Z,73.50
2023-03-30T16:12:18.358Z,73.44
2023-03-30T16:14:47.231Z,74.39
2023-03-30T16:17:15.501Z,74.41
2023-03-30T16:19:43.332Z,74.96
2023-03-30T16:22:12.198Z,75.38
2023-03-30T16:24:39.106Z,75.40
2023-03-30T16:27:06.604Z,75.91
2023-03-30T16:29:33.729Z,75.50
2023-03-30T16:32:01.603Z,76.33
2023-03-30T16:34:28.836Z,76.65
2023-03-30T16:36:56.345Z,77.46
2023-03-30T16:39:28.836Z,77.10
2023-03-30T16:41:56.513Z,76.79
2023-03-30T16:44:24.996Z,77.51
2023-03-30T16:46:52.700Z,78.16
2023-03-30T16:49:23.121Z,78.22
2023-03-30T16:51:52.598Z,78.57
2023-03-30T16:54:30.450Z,79.57
2023-03-30T16:57:00.603Z,78.81
2023-03-30T16:59:31.715Z,79.48
2023-03-30T17:02:00.159Z,79.84
2023-03-30T17:04:27.267Z,80.26
2023-03-30T17:06:55.188Z,80.67
2023-03-30T17:09:22.362Z,80.70
2023-03-30T17:11:50.041Z,81.19
2023-03-30T17:14:17.970Z,81.42
2023-03-30T17:16:45.499Z,81.76
2023-03-30T17:19:14.148Z,82.43
2023-03-30T17:21:43.858Z,82.28
2023-03-30T17:24:12.795Z,82.16
2023-03-30T17:26:41.110Z,82.12
2023-03-30T17:29:09.707Z,82.58
2023-03-30T17:31:38.423Z,82.30
2023-03-30T17:34:06.787Z,82.45
2023-03-30T17:36:34.011Z,82.34
2023-03-30T17:39:04.827Z,82.07
2023-03-30T17:41:33.771Z,81.82
2023-03-30T17:44:00.798Z,81.60
2023-03-30T17:46:28.437Z,81.15
2023-03-30T17:48:55.407Z,81.91
2023-03-30T17:51:22.614Z,81.76
2023-03-30T17:53:49.516Z,81.50
2023-03-30T17:56:17.223Z,82.11
2023-03-30T17:58:44.121Z,81.41
2023-03-30T18:01:13.298Z,81.76
2023-03-30T18:03:40.855Z,81.50
2023-03-30T18:06:13.725Z,81.41
2023-03-30T18:08:41.197Z,81.72
2023-03-30T18:11:10.705Z,81.42
2023-03-30T18:13:38.187Z,81.41
2023-03-30T18:16:06.868Z,81.11
2023-03-30T18:18:33.847Z,80.83
2023-03-30T18:21:04.280Z,80.75
2023-03-30T18:23:34.046Z,80.78
2023-03-30T18:26:09.425Z,80.84
2023-03-30T18:28:40.559Z,80.88
2023-03-30T18:31:08.896Z,80.66
2023-03-30T18:33:36.220Z,80.41
2023-03-30T18:36:07.583Z,80.77
2023-03-30T18:38:34.914Z,79.69
2023-03-30T18:41:02.091Z,80.28
2023-03-30T18:43:29.063Z,79.58
2023-03-30T18:46:01.047Z,79.31
2023-03-30T18:48:29.008Z,79.62
2023-03-30T18:50:57.082Z,78.94
2023-03-30T18:53:28.514Z,79.70
2023-03-30T18:55:58.698Z,78.76
2023-03-30T18:58:27.956Z,78.90
2023-03-30T19:00:56.186Z,78.74
2023-03-30T19:03:24.223Z,77.83
2023-03-30T19:05:51.662Z,77.86
2023-03-30T19:08:21.618Z,78.13
2023-03-30T19:10:51.024Z,78.13
2023-03-30T19:13:20.458Z,77.52
2023-03-30T19:15:49.682Z,77.16
2023-03-30T19:18:25.978Z,77.46
2023-03-30T19:20:55.591Z,77.30
2023-03-30T19:23:22.352Z,76.61
2023-03-30T19:25:49.848Z,76.90
2023-03-30T19:28:17.306Z,77.03
2023-03-30T19:30:46.314Z,76.23
2023-03-30T19:33:16.631Z,76.81
2023-03-30T19:35:45.887Z,76.45
2023-03-30T19:38:14.869Z,76.79
2023-03-30T19:40:42.460Z,75.75
2023-03-30T19:43:09.881Z,76.12
2023-03-30T19:45:37.475Z,76.00
2023-03-30T19:48:04.656Z,75.82
2023-03-30T19:50:31.852Z,75.62
2023-03-30T19:52:59.577Z,75.62
2023-03-30T19:55:27.112Z,76.05
2023-03-30T19:57:54.780Z,75.07
2023-03-30T20:00:22.791Z,75.81
2023-03-30T20:02:52.169Z,76.12
2023-03-30T20:05:21.008Z,75.32
2023-03-30T20:07:48.756Z,75.76
2023-03-30T20:10:20.336Z,75.02
2023-03-30T20:12:49.637Z,74.71
2023-03-30T20:15:18.051Z,74.67
2023-03-30T20:17:45.017Z,74.23
2023-03-30T20:20:17.060Z,74.33
2023-03-30T20:22:44.781Z,74.63
2023-03-30T20:25:14.110Z,74.61
2023-03-30T20:27:41.612Z,74.38
2023-03-30T20:30:10.123Z,74.91
2023-03-30T20:32:37.461Z,74.94
2023-03-30T20:35:06.212Z,76.11
2023-03-30T20:37:33.394Z,76.22
2023-03-30T20:40:04.247Z,76.99
2023-03-30T20:42:34.117Z,78.13
2023-03-30T20:45:01.747Z,79.30
2023-03-30T20:47:31.069Z,80.21
2023-03-30T20:49:59.388Z,81.75
2023-03-30T20:52:27.099Z,83.77
2023-03-30T20:54:54.404Z,86.81
2023-03-30T20:57:22.057Z,90.13
2023-03-30T20:59:50.189Z,93.71
2023-03-30T21:02:19.051Z,97.88
2023-03-30T21:04:46.454Z,100.00
2023-03-30T21:07:13.620Z,100.00
2023-03-30T21:09:40.833Z,100.00
2023-03-30T21:12:09.774Z,100.00
2023-03-30T21:14:36.987Z,100.00
2023-03-30T21:17:04.470Z,100.00
2023-03-30T21:19:31.816Z,100.00
2023-03-30T21:22:00.360Z,100.00
2023-03-30T21:24:28.034Z,100.00
2023-03-30T21:26:55.048Z,100.00
2023-03-30T21:29:22.759Z,100.00
2023-03-30T21:31:50.113Z,100.00
2023-03-30T21:34:18.907Z,100.00
2023-03-30T21:36:46.533Z,100.00
2023-03-30T21:39:14.144Z,100.00
2023-03-30T21:41:41.239Z,100.00
2023-03-30T21:44:08.533Z,100.00
2023-03-30T21:46:35.510Z,100.00
2023-03-30T21:49:02.792Z,100.00
2023-03-30T21:51:31.494Z,100.00
2023-03-30T21:53:59.477Z,100.00
2023-03-30T21:56:29.393Z,100.00
2023-03-30T21:58:57.736Z,100.00
2023-03-30T22:01:25.200Z,100.00
2023-03-30T22:03:53.716Z,100.00
2023-03-30T22:06:21.672Z,100.00
2023-03-30T22:08:49.147Z,100.00
2023-03-30T22:11:19.167Z,100.00
2023-03-30T22:13:48.516Z,100.00
2023-03-30T22:16:36.818Z,100.00
2023-03-30T22:19:04.560Z,100.00
2023-03-30T22:21:34.917Z,100.00
2023-03-30T22:24:04.159Z,100.00
2023-03-30T22:26:31.229Z,100.00
2023-03-30T22:28:58.437Z,100.00
2023-03-30T22:31:26.668Z,100.00
2023-03-30T22:33:54.612Z,100.00
2023-03-30T22:36:33.280Z,100.00
2023-03-30T22:39:01.903Z,100.00
2023-03-30T22:41:29.135Z,100.00
2023-03-30T22:43:58.041Z,100.00
2023-03-30T22:46:26.626Z,100.00
2023-03-30T22:48:55.770Z,100.00
2023-03-30T22:51:26.703Z,100.00
2023-03-30T22:54:00.733Z,100.00
2023-03-30T22:56:29.076Z,100.00
2023-03-30T22:58:57.134Z,100.00
2023-03-30T23:01:24.006Z,100.00
2023-03-30T23:03:53.100Z,100.00
2023-03-30T23:06:20.400Z,100.00
2023-03-30T23:08:48.931Z,100.00
2023-03-30T23:11:16.403Z,100.00
2023-03-30T23:13:43.757Z,100.00
2023-03-30T23:16:10.852Z,100.00
2023-03-30T23:18:38.689Z,100.00
2023-03-30T23:21:11.284Z,100.00
2023-03-30T23:23:38.698Z,100.00
2023-03-30T23:26:10.472Z,100.00
2023-03-30T23:28:42.135Z,100.00
2023-03-30T23:31:14.745Z,100.00
2023-03-30T23:33:42.776Z,100.00
2023-03-30T23:36:13.977Z,100.00
2023-03-30T23:38:41.795Z,100.00
2023-03-30T23:41:09.303Z,100.00
2023-03-30T23:43:36.543Z,100.00
2023-03-30T23:46:04.024Z,100.00
2023-03-30T23:48:32.012Z,100.00
2023-03-30T23:50:59.422Z,100.00
2023-03-30T23:53:27.018Z,100.00
2023-03-30T23:55:54.592Z,100.00
2023-03-30T23:58:22.521Z,100.00
